createdAt,value
2023-03-20T00:00:25.484Z,82.59
2023-03-20T00:01:25.478Z,82.39
2023-03-20T00:02:25.480Z,82.79
2023-03-20T00:03:25.528Z,82.90
2023-03-20T00:04:25.472Z,82.28
2023-03-20T00:05:25.480Z,83.20
2023-03-20T00:06:25.413Z,82.79
2023-03-20T00:07:25.427Z,83.34
2023-03-20T00:08:26.514Z,83.34
2023-03-20T00:09:25.409Z,83.41
2023-03-20T00:10:25.372Z,83.61
2023-03-20T00:11:25.393Z,83.20
2023-03-20T00:12:25.407Z,83.25
2023-03-20T00:13:25.390Z,83.76
2023-03-20T00:14:25.404Z,83.65
2023-03-20T00:15:25.336Z,83.65
2023-03-20T00:16:25.439Z,84.37
2023-03-20T00:17:25.286Z,84.37
2023-03-20T00:18:25.309Z,84.47
2023-03-20T00:19:25.291Z,84.17
2023-03-20T00:20:25.301Z,84.06
2023-03-20T00:21:25.320Z,83.96
2023-03-20T00:22:25.267Z,84.17
2023-03-20T00:23:25.260Z,84.17
2023-03-20T00:24:25.251Z,84.27
2023-03-20T00:25:25.247Z,84.47
2023-03-20T00:26:25.239Z,84.00
2023-03-20T00:27:25.215Z,84.06
2023-03-20T00:28:25.197Z,84.27
2023-03-20T00:29:25.210Z,84.17
2023-03-20T00:30:25.185Z,84.27
2023-03-20T00:31:25.255Z,84.27
2023-03-20T00:32:25.176Z,83.96
2023-03-20T00:33:25.156Z,84.27
2023-03-20T00:34:25.144Z,84.37
2023-03-20T00:35:25.129Z,83.96
2023-03-20T00:36:25.115Z,84.12
2023-03-20T00:37:25.095Z,84.06
2023-03-20T00:38:25.087Z,84.06
2023-03-20T00:39:25.102Z,84.00
2023-03-20T00:40:25.069Z,84.06
2023-03-20T00:41:25.088Z,84.37
2023-03-20T00:42:25.086Z,84.00
2023-03-20T00:43:25.048Z,84.52
2023-03-20T00:44:25.076Z,84.52
2023-03-20T00:45:25.035Z,85.03
2023-03-20T00:46:25.060Z,84.61
2023-03-20T00:47:25.025Z,83.96
2023-03-20T00:48:25.004Z,84.06
2023-03-20T00:49:24.997Z,84.06
2023-03-20T00:50:24.996Z,84.17
2023-03-20T00:51:24.977Z,84.06
2023-03-20T00:52:24.994Z,84.17
2023-03-20T00:53:24.954Z,84.17
2023-03-20T00:54:24.943Z,84.17
2023-03-20T00:55:24.940Z,84.58
2023-03-20T00:56:24.917Z,84.37
2023-03-20T00:57:24.921Z,83.96
2023-03-20T00:58:24.907Z,84.88
2023-03-20T00:59:24.885Z,84.88
2023-03-20T01:00:25.898Z,84.88
2023-03-20T01:01:24.921Z,85.30
2023-03-20T01:02:24.920Z,84.17
2023-03-20T01:03:24.872Z,85.30
2023-03-20T01:04:24.833Z,84.78
2023-03-20T01:05:24.820Z,85.03
2023-03-20T01:06:24.814Z,85.13
2023-03-20T01:07:24.897Z,85.23
2023-03-20T01:08:24.851Z,85.39
2023-03-20T01:09:24.779Z,85.30
2023-03-20T01:10:24.837Z,84.20
2023-03-20T01:11:24.816Z,84.31
2023-03-20T01:12:24.750Z,84.10
2023-03-20T01:13:24.771Z,84.41
2023-03-20T01:14:24.730Z,84.06
2023-03-20T01:15:24.754Z,84.31
2023-03-20T01:16:24.802Z,84.00
2023-03-20T01:17:24.734Z,84.20
2023-03-20T01:18:24.699Z,84.00
2023-03-20T01:19:24.703Z,84.31
2023-03-20T01:20:24.676Z,84.10
2023-03-20T01:21:24.668Z,84.20
2023-03-20T01:22:24.702Z,84.00
2023-03-20T01:23:24.651Z,83.90
2023-03-20T01:24:24.631Z,84.00
2023-03-20T01:25:24.625Z,84.41
2023-03-20T01:26:24.656Z,84.52
2023-03-20T01:27:24.607Z,84.52
2023-03-20T01:28:24.620Z,84.10
2023-03-20T01:29:24.643Z,84.61
2023-03-20T01:30:24.579Z,83.80
2023-03-20T01:31:24.576Z,83.69
2023-03-20T01:32:24.575Z,84.45
2023-03-20T01:33:24.586Z,84.14
2023-03-20T01:34:24.543Z,84.14
2023-03-20T01:35:24.530Z,84.25
2023-03-20T01:36:24.529Z,84.04
2023-03-20T01:37:24.500Z,85.00
2023-03-20T01:38:24.566Z,85.06
2023-03-20T01:39:24.527Z,84.96
2023-03-20T01:40:24.495Z,84.76
2023-03-20T01:41:24.485Z,85.47
2023-03-20T01:42:24.452Z,85.68
2023-03-20T01:43:24.440Z,85.62
2023-03-20T01:44:24.465Z,86.03
2023-03-20T01:45:24.434Z,86.30
2023-03-20T01:46:24.474Z,86.19
2023-03-20T01:47:24.408Z,86.09
2023-03-20T01:48:24.399Z,85.99
2023-03-20T01:49:24.378Z,85.93
2023-03-20T01:50:24.378Z,86.09
2023-03-20T01:51:24.388Z,86.54
2023-03-20T01:52:50.286Z,87.16
2023-03-20T01:53:24.354Z,87.26
2023-03-20T01:54:24.336Z,87.37
2023-03-20T01:55:24.318Z,87.26
2023-03-20T01:56:24.309Z,87.05
2023-03-20T01:57:24.321Z,87.05
2023-03-20T01:58:24.311Z,87.05
2023-03-20T01:59:24.277Z,87.26
2023-03-20T02:00:24.262Z,87.32
2023-03-20T02:01:24.308Z,87.02
2023-03-20T02:02:24.267Z,87.22
2023-03-20T02:03:24.253Z,86.81
2023-03-20T02:04:24.310Z,86.50
2023-03-20T02:05:24.226Z,86.40
2023-03-20T02:06:24.218Z,86.71
2023-03-20T02:07:24.221Z,86.60
2023-03-20T02:08:24.218Z,86.33
2023-03-20T02:09:24.191Z,86.50
2023-03-20T02:10:24.171Z,85.99
2023-03-20T02:11:24.178Z,85.89
2023-03-20T02:12:24.202Z,86.09
2023-03-20T02:13:24.154Z,86.09
2023-03-20T02:14:24.127Z,85.93
2023-03-20T02:15:24.128Z,86.19
2023-03-20T02:16:24.152Z,86.33
2023-03-20T02:17:24.095Z,86.71
2023-03-20T02:18:24.093Z,87.05
2023-03-20T02:19:24.073Z,87.37
2023-03-20T02:20:24.097Z,87.37
2023-03-20T02:21:24.067Z,87.37
2023-03-20T02:22:24.051Z,87.22
2023-03-20T02:23:24.103Z,87.16
2023-03-20T02:24:24.037Z,87.16
2023-03-20T02:25:24.052Z,87.37
2023-03-20T02:26:24.031Z,87.16
2023-03-20T02:27:24.004Z,86.91
2023-03-20T02:28:23.996Z,87.02
2023-03-20T02:29:23.991Z,87.12
2023-03-20T02:30:23.966Z,87.37
2023-03-20T02:31:24.016Z,87.02
2023-03-20T02:32:23.968Z,87.02
2023-03-20T02:33:23.946Z,86.75
2023-03-20T02:34:23.921Z,86.09
2023-03-20T02:35:24.930Z,86.33
2023-03-20T02:36:23.918Z,86.09
2023-03-20T02:37:23.917Z,86.65
2023-03-20T02:38:23.895Z,86.81
2023-03-20T02:39:23.879Z,86.09
2023-03-20T02:40:23.862Z,86.65
2023-03-20T02:41:23.906Z,86.30
2023-03-20T02:42:23.909Z,87.26
2023-03-20T02:43:23.836Z,87.37
2023-03-20T02:44:23.835Z,87.02
2023-03-20T02:45:23.828Z,87.22
2023-03-20T02:46:23.821Z,87.37
2023-03-20T02:47:23.829Z,87.32
2023-03-20T02:48:23.781Z,87.46
2023-03-20T02:49:23.783Z,87.16
2023-03-20T02:50:23.793Z,86.95
2023-03-20T02:51:23.757Z,86.85
2023-03-20T02:52:23.750Z,87.05
2023-03-20T02:53:23.755Z,86.85
2023-03-20T02:54:23.739Z,87.05
2023-03-20T02:55:23.710Z,87.40
2023-03-20T02:56:23.709Z,87.05
2023-03-20T02:57:23.715Z,87.46
2023-03-20T02:58:23.707Z,87.26
2023-03-20T02:59:23.700Z,86.95
2023-03-20T03:00:23.669Z,86.85
2023-03-20T03:01:23.745Z,86.85
2023-03-20T03:02:23.667Z,86.95
2023-03-20T03:03:23.650Z,87.02
2023-03-20T03:04:23.655Z,87.32
2023-03-20T03:05:23.664Z,86.91
2023-03-20T03:06:23.636Z,86.81
2023-03-20T03:07:23.609Z,87.32
2023-03-20T03:08:23.592Z,86.50
2023-03-20T03:09:23.579Z,87.02
2023-03-20T03:10:23.608Z,86.60
2023-03-20T03:11:23.624Z,86.60
2023-03-20T03:12:23.547Z,85.89
2023-03-20T03:13:23.554Z,86.60
2023-03-20T03:14:23.535Z,86.30
2023-03-20T03:15:23.527Z,86.71
2023-03-20T03:16:23.640Z,86.30
2023-03-20T03:17:23.549Z,86.81
2023-03-20T03:18:23.498Z,86.25
2023-03-20T03:19:23.503Z,86.46
2023-03-20T03:20:23.486Z,86.15
2023-03-20T03:21:23.476Z,86.09
2023-03-20T03:22:23.482Z,85.99
2023-03-20T03:23:23.451Z,86.09
2023-03-20T03:24:37.172Z,86.30
2023-03-20T03:25:25.434Z,87.22
2023-03-20T03:26:23.430Z,87.22
2023-03-20T03:27:23.453Z,87.02
2023-03-20T03:28:23.415Z,87.02
2023-03-20T03:29:23.400Z,87.26
2023-03-20T03:30:23.392Z,87.57
2023-03-20T03:31:23.403Z,87.37
2023-03-20T03:32:23.349Z,87.37
2023-03-20T03:33:23.347Z,87.46
2023-03-20T03:34:23.331Z,87.26
2023-03-20T03:35:23.380Z,87.12
2023-03-20T03:36:23.333Z,87.02
2023-03-20T03:37:23.312Z,87.02
2023-03-20T03:38:23.318Z,87.12
2023-03-20T03:39:23.292Z,86.81
2023-03-20T03:40:23.276Z,87.05
2023-03-20T03:41:23.279Z,86.75
2023-03-20T03:42:23.258Z,86.91
2023-03-20T03:43:23.325Z,87.16
2023-03-20T03:44:23.235Z,87.05
2023-03-20T03:45:23.221Z,87.02
2023-03-20T03:46:23.238Z,87.08
2023-03-20T03:47:23.194Z,87.32
2023-03-20T03:48:23.221Z,86.91
2023-03-20T03:49:23.184Z,86.60
2023-03-20T03:50:23.187Z,85.78
2023-03-20T03:51:23.186Z,86.50
2023-03-20T03:52:23.187Z,86.60
2023-03-20T03:53:23.144Z,86.54
2023-03-20T03:54:23.197Z,86.50
2023-03-20T03:55:23.134Z,86.50
2023-03-20T03:56:23.201Z,86.60
2023-03-20T03:57:23.123Z,86.71
2023-03-20T03:58:23.098Z,86.57
2023-03-20T03:59:23.089Z,85.89
2023-03-20T04:00:23.089Z,85.85
2023-03-20T04:01:23.073Z,86.19
2023-03-20T04:02:23.078Z,86.30
2023-03-20T04:03:23.050Z,86.19
2023-03-20T04:04:23.102Z,86.05
2023-03-20T04:05:23.028Z,86.05
2023-03-20T04:06:23.020Z,85.85
2023-03-20T04:07:23.072Z,85.85
2023-03-20T04:08:23.004Z,85.85
2023-03-20T04:09:23.012Z,85.74
2023-03-20T04:10:22.986Z,85.03
2023-03-20T04:11:22.977Z,85.54
2023-03-20T04:12:22.985Z,85.64
2023-03-20T04:13:23.007Z,85.54
2023-03-20T04:14:22.955Z,85.74
2023-03-20T04:15:22.984Z,85.44
2023-03-20T04:16:23.007Z,84.99
2023-03-20T04:17:22.917Z,85.13
2023-03-20T04:18:23.910Z,85.39
2023-03-20T04:19:22.898Z,85.19
2023-03-20T04:20:22.927Z,85.33
2023-03-20T04:21:22.917Z,84.92
2023-03-20T04:22:22.864Z,85.44
2023-03-20T04:23:22.909Z,85.13
2023-03-20T04:24:23.857Z,85.50
2023-03-20T04:25:22.881Z,85.44
2023-03-20T04:26:22.841Z,85.13
2023-03-20T04:27:22.820Z,85.13
2023-03-20T04:28:22.820Z,84.78
2023-03-20T04:29:22.813Z,84.68
2023-03-20T04:30:22.789Z,85.44
2023-03-20T04:31:22.852Z,84.37
2023-03-20T04:32:22.763Z,84.99
2023-03-20T04:33:22.757Z,85.60
2023-03-20T04:34:22.780Z,84.88
2023-03-20T04:35:22.736Z,84.82
2023-03-20T04:36:22.781Z,84.88
2023-03-20T04:37:22.715Z,85.64
2023-03-20T04:38:22.704Z,85.44
2023-03-20T04:39:22.721Z,85.95
2023-03-20T04:40:22.697Z,86.05
2023-03-20T04:41:22.687Z,86.05
2023-03-20T04:42:22.646Z,85.85
2023-03-20T04:43:22.706Z,85.85
2023-03-20T04:44:22.671Z,85.85
2023-03-20T04:45:22.638Z,85.85
2023-03-20T04:46:22.787Z,85.85
2023-03-20T04:47:22.611Z,85.85
2023-03-20T04:48:22.616Z,87.32
2023-03-20T04:49:22.622Z,87.18
2023-03-20T04:50:22.589Z,86.46
2023-03-20T04:51:22.615Z,86.57
2023-03-20T04:52:22.566Z,87.28
2023-03-20T04:53:22.553Z,86.57
2023-03-20T04:54:23.538Z,86.87
2023-03-20T04:55:22.558Z,86.87
2023-03-20T04:56:22.566Z,86.87
2023-03-20T04:57:22.545Z,87.08
2023-03-20T04:58:22.512Z,87.28
2023-03-20T04:59:22.505Z,87.32
2023-03-20T05:00:22.489Z,87.63
2023-03-20T05:01:22.524Z,87.63
2023-03-20T05:02:22.463Z,87.70
2023-03-20T05:03:24.040Z,88.04
2023-03-20T05:04:23.563Z,87.73
2023-03-20T05:05:22.452Z,87.73
2023-03-20T05:06:22.467Z,87.90
2023-03-20T05:07:22.439Z,87.94
2023-03-20T05:08:22.417Z,88.35
2023-03-20T05:09:22.415Z,88.76
2023-03-20T05:10:22.394Z,88.66
2023-03-20T05:11:22.382Z,88.56
2023-03-20T05:12:22.361Z,88.96
2023-03-20T05:13:22.363Z,88.86
2023-03-20T05:14:22.368Z,89.48
2023-03-20T05:15:22.335Z,89.17
2023-03-20T05:16:22.424Z,89.21
2023-03-20T05:17:22.308Z,88.86
2023-03-20T05:18:22.324Z,89.21
2023-03-20T05:19:22.359Z,89.07
2023-03-20T05:20:22.299Z,89.27
2023-03-20T05:21:22.291Z,89.31
2023-03-20T05:22:22.265Z,89.93
2023-03-20T05:23:22.269Z,89.83
2023-03-20T05:24:22.262Z,89.89
2023-03-20T05:25:22.286Z,89.83
2023-03-20T05:26:22.241Z,90.34
2023-03-20T05:27:22.215Z,90.14
2023-03-20T05:28:22.205Z,90.65
2023-03-20T05:29:22.196Z,89.83
2023-03-20T05:30:22.201Z,90.34
2023-03-20T05:31:22.245Z,90.24
2023-03-20T05:32:22.166Z,90.24
2023-03-20T05:33:22.178Z,90.85
2023-03-20T05:34:22.208Z,90.44
2023-03-20T05:35:22.139Z,90.44
2023-03-20T05:36:22.164Z,90.81
2023-03-20T05:37:22.120Z,90.75
2023-03-20T05:38:22.113Z,90.40
2023-03-20T05:39:22.104Z,90.34
2023-03-20T05:40:22.109Z,90.30
2023-03-20T05:41:22.089Z,90.20
2023-03-20T05:42:22.089Z,90.55
2023-03-20T05:43:22.056Z,90.44
2023-03-20T05:44:22.059Z,90.81
2023-03-20T05:45:22.048Z,90.61
2023-03-20T05:46:22.042Z,90.20
2023-03-20T05:47:24.231Z,90.40
2023-03-20T05:48:22.009Z,90.71
2023-03-20T05:49:22.010Z,90.46
2023-03-20T05:50:22.027Z,90.50
2023-03-20T05:51:21.985Z,90.50
2023-03-20T05:52:21.972Z,90.67
2023-03-20T05:53:22.009Z,89.99
2023-03-20T05:54:21.948Z,90.26
2023-03-20T05:55:21.942Z,89.84
2023-03-20T05:56:22.009Z,89.95
2023-03-20T05:57:21.952Z,89.81
2023-03-20T05:58:21.938Z,90.01
2023-03-20T05:59:21.903Z,89.45
2023-03-20T06:00:21.917Z,88.94
2023-03-20T06:01:22.001Z,88.74
2023-03-20T06:02:21.928Z,88.02
2023-03-20T06:03:21.952Z,87.57
2023-03-20T06:04:21.849Z,87.47
2023-03-20T06:05:21.880Z,87.67
2023-03-20T06:06:21.836Z,87.37
2023-03-20T06:07:21.839Z,87.02
2023-03-20T06:08:21.847Z,87.77
2023-03-20T06:09:21.804Z,87.63
2023-03-20T06:10:21.787Z,87.22
2023-03-20T06:11:21.802Z,86.91
2023-03-20T06:12:21.797Z,87.02
2023-03-20T06:13:21.776Z,86.71
2023-03-20T06:14:21.773Z,87.37
2023-03-20T06:15:21.749Z,87.67
2023-03-20T06:16:21.806Z,87.47
2023-03-20T06:17:21.734Z,87.37
2023-03-20T06:18:21.740Z,87.47
2023-03-20T06:19:21.712Z,87.37
2023-03-20T06:20:21.723Z,87.47
2023-03-20T06:21:21.724Z,87.37
2023-03-20T06:22:21.673Z,87.88
2023-03-20T06:23:21.690Z,88.33
2023-03-20T06:24:21.694Z,89.25
2023-03-20T06:25:21.695Z,88.94
2023-03-20T06:26:21.637Z,89.39
2023-03-20T06:27:21.681Z,89.66
2023-03-20T06:28:21.641Z,90.11
2023-03-20T06:29:21.610Z,89.60
2023-03-20T06:30:21.598Z,89.70
2023-03-20T06:31:21.698Z,90.22
2023-03-20T06:32:21.573Z,89.70
2023-03-20T06:33:21.587Z,90.22
2023-03-20T06:34:21.558Z,90.48
2023-03-20T06:35:21.568Z,89.76
2023-03-20T06:36:21.538Z,89.97
2023-03-20T06:37:21.532Z,89.15
2023-03-20T06:38:21.549Z,89.04
2023-03-20T06:39:21.518Z,89.25
2023-03-20T06:40:21.509Z,89.45
2023-03-20T06:41:33.871Z,89.21
2023-03-20T06:42:22.484Z,89.00
2023-03-20T06:43:21.477Z,89.31
2023-03-20T06:44:21.465Z,88.70
2023-03-20T06:45:21.468Z,88.29
2023-03-20T06:46:21.482Z,88.39
2023-03-20T06:47:21.436Z,88.35
2023-03-20T06:48:21.461Z,88.45
2023-03-20T06:49:21.412Z,88.59
2023-03-20T06:50:21.440Z,88.56
2023-03-20T06:51:21.398Z,88.70
2023-03-20T06:52:21.409Z,88.65
2023-03-20T06:53:21.421Z,88.76
2023-03-20T06:54:21.410Z,88.76
2023-03-20T06:55:21.359Z,88.62
2023-03-20T06:56:21.417Z,87.49
2023-03-20T06:57:21.350Z,87.32
2023-03-20T06:58:21.331Z,87.49
2023-03-20T06:59:21.335Z,87.94
2023-03-20T07:00:21.327Z,87.73
2023-03-20T07:01:21.351Z,88.24
2023-03-20T07:02:21.294Z,88.24
2023-03-20T07:03:21.277Z,89.17
2023-03-20T07:04:21.308Z,89.17
2023-03-20T07:05:21.328Z,89.17
2023-03-20T07:06:21.253Z,89.17
2023-03-20T07:07:21.241Z,89.27
2023-03-20T07:08:21.252Z,89.37
2023-03-20T07:09:21.222Z,89.06
2023-03-20T07:10:21.299Z,89.27
2023-03-20T07:11:21.233Z,89.58
2023-03-20T07:12:21.263Z,89.78
2023-03-20T07:13:21.204Z,89.78
2023-03-20T07:14:21.192Z,89.78
2023-03-20T07:15:21.215Z,89.27
2023-03-20T07:16:21.162Z,89.78
2023-03-20T07:17:21.146Z,89.68
2023-03-20T07:18:21.186Z,88.96
2023-03-20T07:19:21.160Z,89.37
2023-03-20T07:20:21.116Z,88.86
2023-03-20T07:21:21.118Z,89.27
2023-03-20T07:22:21.118Z,89.27
2023-03-20T07:23:21.080Z,88.56
2023-03-20T07:24:21.118Z,89.06
2023-03-20T07:25:31.937Z,89.03
2023-03-20T07:26:23.077Z,89.03
2023-03-20T07:27:21.052Z,89.03
2023-03-20T07:28:21.044Z,88.62
2023-03-20T07:29:21.066Z,88.82
2023-03-20T07:30:21.023Z,88.41
2023-03-20T07:31:21.095Z,88.26
2023-03-20T07:32:20.988Z,87.45
2023-03-20T07:33:21.153Z,87.79
2023-03-20T07:34:21.068Z,87.65
2023-03-20T07:35:21.038Z,87.70
2023-03-20T07:36:20.995Z,87.55
2023-03-20T07:37:20.956Z,87.85
2023-03-20T07:38:20.935Z,87.35
2023-03-20T07:39:52.665Z,87.24
2023-03-20T07:40:22.172Z,87.45
2023-03-20T07:41:24.649Z,87.76
2023-03-20T07:42:20.905Z,87.45
2023-03-20T07:43:20.896Z,87.76
2023-03-20T07:44:20.914Z,87.76
2023-03-20T07:45:20.874Z,87.55
2023-03-20T07:46:20.950Z,87.61
2023-03-20T07:47:20.894Z,87.96
2023-03-20T07:48:20.844Z,87.45
2023-03-20T07:49:20.845Z,87.76
2023-03-20T07:50:20.851Z,88.06
2023-03-20T07:51:20.845Z,88.37
2023-03-20T07:52:20.799Z,87.76
2023-03-20T07:53:52.703Z,87.85
2023-03-20T07:54:20.776Z,87.71
2023-03-20T07:55:20.796Z,87.61
2023-03-20T07:56:20.761Z,88.02
2023-03-20T07:57:20.762Z,88.26
2023-03-20T07:58:20.750Z,88.17
2023-03-20T07:59:20.731Z,87.65
2023-03-20T08:00:20.767Z,88.17
2023-03-20T08:01:20.793Z,89.09
2023-03-20T08:02:20.709Z,89.29
2023-03-20T08:03:20.801Z,88.47
2023-03-20T08:04:20.731Z,88.68
2023-03-20T08:05:20.675Z,88.98
2023-03-20T08:06:20.707Z,88.92
2023-03-20T08:07:20.681Z,88.98
2023-03-20T08:08:20.637Z,88.62
2023-03-20T08:09:20.632Z,89.43
2023-03-20T08:10:20.664Z,89.33
2023-03-20T08:11:20.655Z,89.53
2023-03-20T08:12:20.602Z,89.53
2023-03-20T08:13:20.578Z,89.74
2023-03-20T08:14:20.597Z,90.36
2023-03-20T08:15:20.585Z,90.05
2023-03-20T08:16:20.648Z,90.15
2023-03-20T08:17:21.894Z,90.25
2023-03-20T08:18:21.544Z,90.86
2023-03-20T08:19:20.552Z,90.66
2023-03-20T08:20:20.578Z,90.45
2023-03-20T08:21:20.516Z,91.17
2023-03-20T08:22:20.543Z,91.38
2023-03-20T08:23:20.975Z,91.58
2023-03-20T08:24:21.508Z,91.99
2023-03-20T08:25:20.495Z,92.05
2023-03-20T08:26:20.469Z,91.69
2023-03-20T08:27:20.480Z,91.58
2023-03-20T08:28:20.526Z,91.54
2023-03-20T08:29:20.431Z,91.69
2023-03-20T08:30:20.440Z,91.48
2023-03-20T08:31:20.483Z,91.74
2023-03-20T08:32:20.423Z,91.44
2023-03-20T08:33:20.400Z,91.44
2023-03-20T08:34:22.872Z,91.27
2023-03-20T08:35:32.542Z,91.44
2023-03-20T08:36:22.401Z,91.99
2023-03-20T08:37:20.374Z,91.89
2023-03-20T08:38:20.485Z,92.10
2023-03-20T08:39:20.383Z,91.85
2023-03-20T08:40:20.352Z,91.74
2023-03-20T08:41:20.384Z,91.64
2023-03-20T08:42:20.308Z,91.85
2023-03-20T08:43:20.323Z,91.54
2023-03-20T08:44:20.310Z,91.44
2023-03-20T08:45:20.286Z,91.54
2023-03-20T08:46:20.296Z,90.99
2023-03-20T08:47:20.286Z,90.72
2023-03-20T08:48:20.294Z,90.58
2023-03-20T08:49:20.273Z,90.23
2023-03-20T08:50:20.239Z,90.47
2023-03-20T08:51:20.282Z,90.47
2023-03-20T08:52:20.229Z,90.68
2023-03-20T08:53:22.145Z,90.17
2023-03-20T08:54:21.190Z,90.58
2023-03-20T08:55:20.178Z,90.37
2023-03-20T08:56:20.190Z,90.17
2023-03-20T08:57:20.165Z,89.97
2023-03-20T08:58:20.184Z,89.92
2023-03-20T08:59:20.149Z,90.37
2023-03-20T09:00:20.131Z,89.97
2023-03-20T09:01:20.164Z,90.92
2023-03-20T09:02:20.268Z,91.13
2023-03-20T09:03:20.180Z,91.13
2023-03-20T09:04:20.111Z,91.54
2023-03-20T09:05:20.071Z,91.64
2023-03-20T09:06:20.102Z,91.74
2023-03-20T09:07:20.069Z,91.13
2023-03-20T09:08:20.071Z,90.92
2023-03-20T09:09:20.030Z,90.47
2023-03-20T09:10:21.032Z,90.43
2023-03-20T09:11:20.059Z,90.23
2023-03-20T09:12:20.020Z,90.33
2023-03-20T09:13:27.276Z,90.12
2023-03-20T09:14:20.997Z,90.19
2023-03-20T09:15:20.020Z,89.58
2023-03-20T09:16:20.339Z,88.85
2023-03-20T09:17:19.970Z,88.51
2023-03-20T09:18:19.958Z,88.35
2023-03-20T09:19:19.955Z,87.59
2023-03-20T09:20:19.949Z,87.08
2023-03-20T09:21:19.967Z,87.18
2023-03-20T09:22:19.926Z,87.18
2023-03-20T09:23:19.964Z,87.14
2023-03-20T09:24:19.898Z,86.94
2023-03-20T09:25:19.878Z,87.10
2023-03-20T09:26:19.996Z,86.80
2023-03-20T09:27:19.877Z,86.39
2023-03-20T09:28:19.917Z,85.33
2023-03-20T09:29:19.856Z,85.02
2023-03-20T09:30:19.851Z,84.11
2023-03-20T09:31:19.880Z,84.00
2023-03-20T09:32:19.877Z,83.63
2023-03-20T09:33:19.792Z,85.02
2023-03-20T09:34:19.813Z,83.90
2023-03-20T09:35:19.835Z,83.90
2023-03-20T09:36:19.802Z,83.59
2023-03-20T09:37:19.761Z,83.70
2023-03-20T09:38:19.839Z,83.76
2023-03-20T09:39:19.762Z,83.86
2023-03-20T09:40:19.749Z,83.51
2023-03-20T09:41:19.759Z,84.03
2023-03-20T09:42:19.758Z,82.09
2023-03-20T09:43:19.732Z,81.88
2023-03-20T09:44:19.722Z,82.50
2023-03-20T09:45:19.778Z,82.19
2023-03-20T09:46:19.724Z,82.40
2023-03-20T09:47:21.283Z,83.21
2023-03-20T09:48:20.653Z,82.33
2023-03-20T09:49:19.718Z,82.50
2023-03-20T09:50:19.641Z,82.80
2023-03-20T09:51:19.668Z,81.99
2023-03-20T09:52:19.646Z,82.19
2023-03-20T09:53:19.650Z,82.19
2023-03-20T09:54:19.618Z,82.29
2023-03-20T09:55:19.683Z,82.09
2023-03-20T09:56:19.619Z,81.17
2023-03-20T09:57:19.602Z,82.19
2023-03-20T09:58:19.639Z,81.99
2023-03-20T09:59:19.583Z,81.88
2023-03-20T10:00:19.600Z,82.29
2023-03-20T10:01:19.536Z,81.99
2023-03-20T10:02:19.539Z,81.17
2023-03-20T10:03:19.772Z,81.52
2023-03-20T10:04:19.599Z,81.58
2023-03-20T10:05:19.614Z,82.29
2023-03-20T10:06:19.537Z,81.54
2023-03-20T10:07:19.467Z,81.17
2023-03-20T10:08:19.464Z,79.30
2023-03-20T10:09:19.458Z,80.32
2023-03-20T10:10:19.441Z,79.27
2023-03-20T10:11:19.471Z,80.42
2023-03-20T10:12:19.500Z,80.36
2023-03-20T10:13:19.422Z,80.93
2023-03-20T10:14:19.404Z,80.32
2023-03-20T10:15:19.426Z,80.02
2023-03-20T10:16:19.520Z,79.50
2023-03-20T10:17:19.388Z,79.81
2023-03-20T10:18:19.374Z,80.22
2023-03-20T10:19:19.357Z,80.11
2023-03-20T10:20:19.370Z,78.69
2023-03-20T10:21:19.352Z,79.16
2023-03-20T10:22:19.419Z,78.25
2023-03-20T10:23:19.310Z,78.25
2023-03-20T10:24:19.321Z,77.94
2023-03-20T10:25:19.353Z,77.23
2023-03-20T10:26:19.413Z,78.25
2023-03-20T10:27:19.274Z,78.25
2023-03-20T10:28:19.275Z,78.21
2023-03-20T10:29:19.329Z,76.28
2023-03-20T10:30:19.237Z,76.31
2023-03-20T10:31:19.302Z,76.11
2023-03-20T10:32:19.226Z,76.72
2023-03-20T10:33:19.246Z,76.31
2023-03-20T10:34:19.214Z,77.33
2023-03-20T10:35:19.292Z,77.44
2023-03-20T10:36:19.410Z,76.11
2023-03-20T10:37:19.223Z,76.18
2023-03-20T10:38:19.194Z,76.48
2023-03-20T10:39:19.193Z,76.38
2023-03-20T10:40:19.271Z,75.98
2023-03-20T10:41:19.137Z,76.31
2023-03-20T10:42:19.137Z,76.42
2023-03-20T10:43:19.207Z,76.42
2023-03-20T10:44:19.104Z,76.72
2023-03-20T10:45:19.083Z,76.42
2023-03-20T10:46:19.208Z,74.55
2023-03-20T10:47:19.149Z,73.63
2023-03-20T10:48:19.075Z,73.43
2023-03-20T10:49:19.132Z,73.70
2023-03-20T10:50:19.078Z,70.96
2023-03-20T10:51:19.024Z,72.28
2023-03-20T10:52:19.171Z,72.58
2023-03-20T10:53:19.005Z,73.26
2023-03-20T10:54:19.034Z,72.96
2023-03-20T10:55:19.154Z,72.96
2023-03-20T10:56:19.039Z,72.25
2023-03-20T10:57:19.055Z,72.04
2023-03-20T10:58:19.068Z,72.14
2023-03-20T10:59:19.030Z,72.21
2023-03-20T11:00:19.014Z,69.06
2023-03-20T11:01:18.956Z,67.57
2023-03-20T11:02:18.934Z,68.08
2023-03-20T11:03:18.964Z,67.88
2023-03-20T11:04:19.039Z,68.49
2023-03-20T11:05:18.916Z,68.69
2023-03-20T11:06:18.919Z,67.88
2023-03-20T11:07:18.914Z,68.69
2023-03-20T11:08:18.890Z,67.88
2023-03-20T11:09:18.869Z,67.57
2023-03-20T11:10:18.843Z,69.09
2023-03-20T11:11:18.881Z,66.66
2023-03-20T11:12:18.825Z,67.97
2023-03-20T11:13:18.837Z,67.36
2023-03-20T11:14:18.893Z,67.88
2023-03-20T11:15:18.805Z,67.57
2023-03-20T11:16:18.873Z,67.88
2023-03-20T11:17:18.790Z,68.28
2023-03-20T11:18:18.813Z,67.97
2023-03-20T11:19:18.805Z,67.88
2023-03-20T11:20:18.819Z,67.80
2023-03-20T11:21:18.771Z,68.72
2023-03-20T11:22:18.729Z,69.46
2023-03-20T11:23:18.737Z,68.82
2023-03-20T11:24:18.736Z,69.02
2023-03-20T11:25:18.724Z,68.82
2023-03-20T11:26:18.720Z,69.81
2023-03-20T11:27:18.717Z,68.96
2023-03-20T11:28:18.712Z,67.94
2023-03-20T11:29:18.664Z,67.77
2023-03-20T11:30:18.730Z,67.88
2023-03-20T11:31:18.710Z,67.88
2023-03-20T11:32:18.645Z,69.09
2023-03-20T11:33:18.663Z,68.99
2023-03-20T11:34:18.710Z,69.50
2023-03-20T11:35:18.635Z,68.79
2023-03-20T11:36:18.626Z,69.30
2023-03-20T11:37:18.601Z,68.99
2023-03-20T11:38:18.574Z,68.69
2023-03-20T11:39:18.615Z,67.77
2023-03-20T11:40:19.572Z,67.74
2023-03-20T11:41:18.552Z,67.24
2023-03-20T11:42:18.554Z,67.36
2023-03-20T11:43:18.557Z,67.74
2023-03-20T11:44:18.526Z,68.08
2023-03-20T11:45:18.517Z,67.77
2023-03-20T11:46:18.527Z,66.93
2023-03-20T11:47:18.492Z,67.94
2023-03-20T11:48:18.473Z,67.94
2023-03-20T11:49:18.489Z,67.77
2023-03-20T11:50:18.458Z,66.46
2023-03-20T11:51:18.501Z,67.36
2023-03-20T11:52:18.433Z,68.21
2023-03-20T11:53:18.444Z,67.91
2023-03-20T11:54:18.449Z,67.94
2023-03-20T11:55:18.399Z,68.65
2023-03-20T11:56:18.391Z,68.85
2023-03-20T11:57:18.444Z,68.75
2023-03-20T11:58:18.380Z,68.55
2023-03-20T11:59:18.523Z,68.11
2023-03-20T12:00:18.350Z,68.62
2023-03-20T12:01:18.346Z,67.91
2023-03-20T12:02:18.376Z,67.60
2023-03-20T12:03:18.362Z,67.80
2023-03-20T12:04:18.320Z,68.01
2023-03-20T12:05:18.358Z,67.50
2023-03-20T12:06:18.299Z,67.57
2023-03-20T12:07:18.275Z,67.16
2023-03-20T12:08:18.291Z,66.05
2023-03-20T12:09:18.271Z,66.58
2023-03-20T12:10:18.300Z,67.50
2023-03-20T12:11:18.250Z,67.74
2023-03-20T12:12:18.273Z,69.16
2023-03-20T12:13:18.240Z,67.94
2023-03-20T12:14:18.217Z,68.55
2023-03-20T12:15:18.208Z,68.96
2023-03-20T12:16:18.236Z,68.55
2023-03-20T12:17:18.248Z,68.85
2023-03-20T12:18:18.199Z,68.75
2023-03-20T12:19:18.166Z,68.72
2023-03-20T12:20:18.151Z,68.82
2023-03-20T12:21:18.178Z,68.62
2023-03-20T12:22:18.159Z,68.89
2023-03-20T12:23:18.134Z,67.88
2023-03-20T12:24:18.129Z,67.47
2023-03-20T12:25:18.116Z,67.88
2023-03-20T12:26:18.113Z,66.66
2023-03-20T12:27:18.091Z,66.96
2023-03-20T12:28:18.084Z,67.47
2023-03-20T12:29:18.135Z,66.49
2023-03-20T12:30:18.075Z,67.91
2023-03-20T12:31:18.105Z,67.60
2023-03-20T12:32:18.027Z,67.91
2023-03-20T12:33:18.119Z,67.16
2023-03-20T12:34:18.052Z,66.89
2023-03-20T12:35:17.995Z,67.57
2023-03-20T12:36:17.995Z,67.47
2023-03-20T12:37:18.003Z,66.02
2023-03-20T12:38:17.970Z,66.12
2023-03-20T12:39:18.012Z,66.35
2023-03-20T12:40:17.957Z,66.42
2023-03-20T12:41:17.942Z,65.81
2023-03-20T12:42:17.927Z,66.22
2023-03-20T12:43:17.913Z,65.71
2023-03-20T12:44:17.945Z,65.41
2023-03-20T12:45:17.919Z,65.99
2023-03-20T12:46:17.959Z,66.80
2023-03-20T12:47:17.931Z,65.78
2023-03-20T12:48:17.857Z,65.78
2023-03-20T12:49:17.926Z,65.51
2023-03-20T12:50:17.885Z,65.51
2023-03-20T12:51:17.862Z,65.41
2023-03-20T12:52:17.843Z,65.71